Používaním stránok prevádzkovaných PROFIPILOT, s.r.o. súhlasíte s používaním cookies, ktoré nám pomáhajú zabezpečiť lepšie služby.OK

Briefing

MAPA | METAR | TAF | METEO SITUÁCIA
MAPA | METAR | TAF | METEO SITUÁCIA

Predpoveď na dnes

Oblačno až zamračené a hmlisto. Postupne miestami zmenšovanie oblačnosti. Spočiatku ojedinele slabé zrážky s možnosťou tvorby poľadovice. Najvyššia denná teplota -1 až 4, pri zmenšenej oblačnosti väčšinou do 6 st. Teplota na horách vo výške 1500 m okolo 0 st. Bezvetrie alebo len slabý vietor. Predpokladané množstvo zrážok: do 0,5 mm

SHMÚ, OMPaV, PZ 27.1.2020 04:45 SEČ

MAPA | METAR | TAF | METEO SITUÁCIA

TAF - Letisková predpoveď

27.01.2020 - 05:00 UTC

TAF LZIB 270500Z 2706/2806 VRB02KT 6000 SCT004 OVC008
     TEMPO 2706/2709 2300 -FZDZ BR BKN002 OVC005
     PROB40 TEMPO 2706/2708 0500 FZFG OVC001
     TEMPO 2711/2716 22006KT 8000 BKN012
     BECMG 2716/2718 1200 BCFG SCT001 OVC004
     BECMG 2800/2802 13015KT 6000 SCT007 BKN020
     PROB40 TEMPO 2802/2806 -RA=
 TAF LZKZ 270500Z 2706/2806 VRB02KT 4000 BR SCT003 OVC005
     TEMPO 2706/2709 1500 BCFG SCT001 OVC003
     PROB40 TEMPO 2706/2708 0400 FZFG OVC001
     TEMPO 2711/2715 7000 FEW005 BKN008
     BECMG 2716/2718 2000 BR BKN004
     TEMPO 2718/2806 0100 -FZDZ FZFG OVC001
     BECMG 2804/2806 20008KT=
 TAF LZTT 270500Z 2706/2806 VRB02KT 7000 SCT010
     TEMPO 2706/2709 2000 BCFG SCT002 BKN006
     PROB40 TEMPO 2706/2708 0600 FZFG BKN001
     BECMG 2711/2713 9999 FEW022 SCT060
     BECMG 2718/2720 3000 BR SCT004 BKN008
     TEMPO 2720/2800 0500 FZFG BKN002
     BECMG 2800/2802 21006KT=
 

27.01.2020 - 05:00 UTC

TAF LZSL 270500Z 2706/2715 VRB02KT 7000 SCT015 BKN020
     TEMPO 2706/2709 3500 BR OVC014=
 TAF LZPP 270500Z 2706/2715 VRB02KT 6000 OVC011
     TEMPO 2706/2710 4000 BR OVC009
     BECMG 2710/2712 9999 BKN017=
 TAF LZZI 270500Z 2706/2715 VRB02KT 6000 OVC006
     TEMPO 2706/2710 3500 BR OVC004
     BECMG 2710/2712 BKN014=
 

27.01.2020 - 02:00 UTC

TAF AMD LZSL 270303Z 2703/2712 VRB02KT 6000 BKN019
     TEMPO 2703/2706 3500 BR BKN004 OVC014=
 

27.01.2020 - 02:00 UTC

TAF LZSL 270200Z 2703/2712 VRB02KT 6000 OVC006
     TEMPO 2703/2706 3500 BR OVC004=
 TAF LZZI 270200Z 2703/2712 VRB02KT 6000 OVC006
     TEMPO 2703/2706 3500 BR OVC004=
 
MAPA | METAR | TAF | METEO SITUÁCIA

METAR - Letisková meteo správa

Letisková meteorologická správa METAR

Meteorologické informácie z ďalších profesionálnych meteorologických staníc SHMÚ zobrazené v tvare zodpovedajúcom pravidlám kódovania správ METAR sú uvedené v položke „METSYN Informácie o správe METAR

27.01.2020 - 05:30 UTC

METAR LZIB 270530Z VRB02KT 6000 BKN004 OVC006 M01/M02 Q1019
 R04/71//95 R13/2///95 NOSIG=
 METAR LZKZ 270530Z VRB02KT 3500 BR BCFG OVC005 M01/M03 Q1018 NOSIG=
 METAR LZPP 270530Z 35004KT 8000 OVC010 M01/M02 Q1019=
 METAR LZSL 270530Z 32002KT 6000 SCT016 M04/M06 Q1018=
 METAR LZTT 270530Z 24003KT 9000 NSC M06/M07 Q1015 NOSIG=
 METAR LZZI 270530Z VRB02KT 6000 OVC004 M03/M04 Q1018=
 

27.01.2020 - 05:00 UTC

METAR LZIB 270500Z 31003KT 270V340 6000 BKN004 OVC006 M01/M02 Q1019
 R04/71//95 R13/2///95 NOSIG=
 METAR LZKZ 270500Z 32002KT 4000 BR BCFG OVC005 M01/M03 Q1018=
 METAR LZPP 270500Z 36003KT 7000 OVC010 M01/M02 Q1019=
 METAR LZSL 270500Z VRB01KT 6000 BKN016 M03/M04 Q1017=
 METAR LZTT 270500Z VRB01KT 9000 NSC M06/M07 Q1015=
 METAR LZZI 270500Z VRB01KT 6000 OVC004 M02/M03 Q1018=
 

27.01.2020 - 05:00 UTC

METAR LZMC 270500Z 04002KT 5000 BR FEW003 OVC005
 M02/M03 Q1019=
 METAR LZPW 270500Z 20003KT 0400 FG OVC002 M03/M03
 Q1018=
 
načítavam...